createdAt,value
2019-01-17T00:00:03.774Z,32.9
2019-01-17T00:00:53.818Z,33
2019-01-17T00:01:44.447Z,33.1
2019-01-17T00:02:33.726Z,33.2
2019-01-17T00:03:23.548Z,33.3
2019-01-17T00:04:14.651Z,33.3
2019-01-17T00:05:04.193Z,33.4
2019-01-17T00:05:54.816Z,33.4
2019-01-17T00:06:43.473Z,33.6
2019-01-17T00:07:33.703Z,33.6
2019-01-17T00:08:24.876Z,33.6
2019-01-17T00:09:14.393Z,33.6
2019-01-17T00:10:04.445Z,33.8
2019-01-17T00:10:54.813Z,33.8
2019-01-17T00:11:44.024Z,33.8
2019-01-17T00:12:35.480Z,33.8
2019-01-17T00:13:24.971Z,33.9
2019-01-17T00:14:14.734Z,33.9
2019-01-17T00:15:05.375Z,33.9
2019-01-17T00:15:54.553Z,34
2019-01-17T00:16:44.975Z,34
2019-01-17T00:17:35.220Z,34.1
2019-01-17T00:18:25.295Z,34.1
2019-01-17T00:19:14.812Z,34.1
2019-01-17T00:20:05.402Z,34.1
2019-01-17T00:20:54.912Z,34.1
2019-01-17T00:21:45.270Z,34
2019-01-17T00:22:35.857Z,33.5
2019-01-17T00:23:25.932Z,33.3
2019-01-17T00:24:16.215Z,33.1
2019-01-17T00:25:04.990Z,32.8
2019-01-17T00:25:56.109Z,32.7
2019-01-17T00:26:44.505Z,32.4
2019-01-17T00:27:35.400Z,32.3
2019-01-17T00:28:26.242Z,32.1
2019-01-17T00:29:16.314Z,31.9
2019-01-17T00:30:05.604Z,31.8
2019-01-17T00:30:57.012Z,31.6
2019-01-17T00:31:46.199Z,31.6
2019-01-17T00:32:36.539Z,31.1
2019-01-17T00:33:26.069Z,30.8
2019-01-17T00:34:16.082Z,30
2019-01-17T00:35:06.164Z,29.9
2019-01-17T00:35:56.512Z,30.4
2019-01-17T00:36:46.801Z,30.9
2019-01-17T00:37:36.064Z,31.3
2019-01-17T00:38:26.934Z,31.5
2019-01-17T00:39:16.422Z,31.7
2019-01-17T00:40:06.767Z,31.8
2019-01-17T00:40:56.586Z,31.9
2019-01-17T00:41:47.159Z,32.1
2019-01-17T00:42:37.491Z,32.3
2019-01-17T00:43:28.023Z,32.4
2019-01-17T00:44:17.056Z,32.6
2019-01-17T00:45:07.124Z,32.7
2019-01-17T00:45:57.146Z,32.8
2019-01-17T00:46:47.063Z,32.9
2019-01-17T00:47:37.595Z,32.9
2019-01-17T00:48:26.546Z,33.1
2019-01-17T00:49:17.366Z,33.1
2019-01-17T00:50:08.371Z,33.2
2019-01-17T00:50:57.825Z,33.3
2019-01-17T00:51:46.808Z,33.3
2019-01-17T00:52:37.040Z,33.3
2019-01-17T00:53:26.861Z,33.4
2019-01-17T00:54:18.703Z,33.4
2019-01-17T00:55:07.509Z,33.5
2019-01-17T00:55:58.400Z,33.5
2019-01-17T00:56:48.438Z,33.6
2019-01-17T00:58:41.816Z,33.6
2019-01-17T00:58:52.701Z,33.7
2019-01-17T00:59:43.303Z,33.7
2019-01-17T01:00:32.815Z,33.8
2019-01-17T01:01:22.591Z,33.8
2019-01-17T01:02:13.739Z,33.8
2019-01-17T01:03:02.229Z,33.9
2019-01-17T01:03:52.568Z,33.9
2019-01-17T01:04:42.829Z,33.1
2019-01-17T01:05:33.428Z,31.9
2019-01-17T01:06:22.110Z,29.9
2019-01-17T01:07:13.781Z,28.2
2019-01-17T01:08:03.924Z,27.8
2019-01-17T01:08:53.383Z,27.5
2019-01-17T01:09:42.901Z,28.6
2019-01-17T01:10:33.258Z,29.6
2019-01-17T01:11:23.347Z,30.4
2019-01-17T01:12:13.634Z,31
2019-01-17T01:13:04.218Z,31.4
2019-01-17T01:13:54.008Z,31.8
2019-01-17T01:14:44.046Z,32
2019-01-17T01:15:34.439Z,32.2
2019-01-17T01:16:23.133Z,32.4
2019-01-17T01:17:14.229Z,32.6
2019-01-17T01:18:04.548Z,32.8
2019-01-17T01:18:54.322Z,32.8
2019-01-17T01:19:43.017Z,32.9
2019-01-17T01:20:34.732Z,33
2019-01-17T01:21:24.525Z,33.1
2019-01-17T01:22:14.883Z,33.2
2019-01-17T01:23:03.298Z,33.3
2019-01-17T01:23:53.704Z,33.4
2019-01-17T01:24:43.116Z,33.4
2019-01-17T01:25:33.791Z,33.4
2019-01-17T01:26:24.203Z,33.5
2019-01-17T01:27:13.116Z,33.6
2019-01-17T01:28:04.278Z,33.6
2019-01-17T01:28:54.314Z,33.7
2019-01-17T01:29:44.103Z,33.8
2019-01-17T01:30:34.621Z,33.8
2019-01-17T01:31:24.478Z,33.8
2019-01-17T01:32:13.988Z,33.9
2019-01-17T01:33:04.633Z,33.9
2019-01-17T01:33:55.148Z,33.9
2019-01-17T01:34:45.255Z,34
2019-01-17T01:35:34.969Z,34
2019-01-17T01:36:24.512Z,34.1
2019-01-17T01:37:15.081Z,34.1
2019-01-17T01:38:04.318Z,34.1
2019-01-17T01:38:54.923Z,34.1
2019-01-17T01:39:44.998Z,33.6
2019-01-17T01:40:35.055Z,33.3
2019-01-17T01:41:25.102Z,33.1
2019-01-17T01:42:14.590Z,32.9
2019-01-17T01:43:04.942Z,32.7
2019-01-17T01:43:54.997Z,32.5
2019-01-17T01:44:45.348Z,32.3
2019-01-17T01:45:35.711Z,32.2
2019-01-17T01:46:26.262Z,32
2019-01-17T01:47:15.804Z,31.8
2019-01-17T01:48:05.032Z,31.7
2019-01-17T01:48:55.595Z,31.6
2019-01-17T01:49:45.751Z,31.1
2019-01-17T01:50:35.442Z,30.8
2019-01-17T01:51:25.508Z,30.2
2019-01-17T01:52:15.908Z,29.8
2019-01-17T01:53:05.640Z,30.3
2019-01-17T01:53:56.022Z,30.8
2019-01-17T01:54:45.224Z,31.3
2019-01-17T01:55:36.389Z,31.4
2019-01-17T01:56:26.942Z,31.6
2019-01-17T01:57:17.009Z,31.7
2019-01-17T01:58:06.509Z,31.8
2019-01-17T01:58:56.325Z,31.9
2019-01-17T01:59:46.349Z,32.1
2019-01-17T02:00:36.713Z,32.3
2019-01-17T02:01:26.814Z,32.4
2019-01-17T02:02:16.522Z,32.6
2019-01-17T02:03:06.634Z,32.7
2019-01-17T02:03:57.200Z,32.8
2019-01-17T02:04:46.199Z,32.9
2019-01-17T02:05:36.374Z,32.9
2019-01-17T02:06:27.101Z,33.1
2019-01-17T02:07:16.889Z,33.1
2019-01-17T02:08:06.655Z,33.2
2019-01-17T02:08:57.286Z,33.3
2019-01-17T02:09:47.571Z,33.3
2019-01-17T02:10:37.947Z,33.4
2019-01-17T02:11:26.575Z,33.4
2019-01-17T02:12:17.488Z,33.4
2019-01-17T02:13:07.011Z,33.4
2019-01-17T02:13:57.866Z,33.5
2019-01-17T02:14:46.903Z,33.5
2019-01-17T02:15:37.313Z,33.6
2019-01-17T02:16:27.543Z,33.6
2019-01-17T02:17:17.806Z,33.6
2019-01-17T02:18:07.603Z,33.6
2019-01-17T02:18:58.180Z,33.7
2019-01-17T02:19:47.909Z,33.7
2019-01-17T02:20:37.294Z,33.8
2019-01-17T02:21:27.912Z,33.8
2019-01-17T02:22:18.412Z,33.8
2019-01-17T02:23:07.950Z,33.7
2019-01-17T02:23:58.540Z,32.7
2019-01-17T02:24:48.015Z,31.4
2019-01-17T02:25:38.662Z,29.8
2019-01-17T02:26:28.185Z,28
2019-01-17T02:27:18.042Z,26.9
2019-01-17T02:28:07.990Z,26.8
2019-01-17T02:28:58.075Z,27.3
2019-01-17T02:29:48.665Z,28.5
2019-01-17T02:30:38.612Z,29.5
2019-01-17T02:31:29.193Z,30.4
2019-01-17T02:32:18.589Z,30.9
2019-01-17T02:33:08.425Z,31.3
2019-01-17T02:33:58.767Z,31.6
2019-01-17T02:34:48.197Z,31.9
2019-01-17T02:35:38.884Z,32
2019-01-17T02:36:28.353Z,32.2
2019-01-17T02:37:19.481Z,32.4
2019-01-17T02:38:09.895Z,32.6
2019-01-17T02:38:59.411Z,32.7
2019-01-17T02:39:49.647Z,32.8
2019-01-17T02:40:38.095Z,32.9
2019-01-17T02:41:29.037Z,33.1
2019-01-17T02:42:20.074Z,33.1
2019-01-17T02:43:08.489Z,33.2
2019-01-17T02:43:59.379Z,33.3
2019-01-17T02:44:49.461Z,33.3
2019-01-17T02:45:39.526Z,33.3
2019-01-17T02:46:29.347Z,33.4
2019-01-17T02:47:19.609Z,33.4
2019-01-17T02:48:10.809Z,33.5
2019-01-17T02:49:00.636Z,33.6
2019-01-17T02:49:48.976Z,33.6
2019-01-17T02:50:40.682Z,33.6
2019-01-17T02:51:30.539Z,33.6
2019-01-17T02:52:20.496Z,33.6
2019-01-17T02:53:10.033Z,33.7
2019-01-17T02:53:59.192Z,33.8
2019-01-17T02:54:50.157Z,33.8
2019-01-17T02:55:40.493Z,33.8
2019-01-17T02:56:31.089Z,33.8
2019-01-17T02:57:21.593Z,33.9
2019-01-17T02:58:10.959Z,33.9
2019-01-17T02:59:00.665Z,33.9
2019-01-17T02:59:50.206Z,33.9
2019-01-17T03:00:39.459Z,33.9
2019-01-17T03:01:31.465Z,34
2019-01-17T03:02:21.495Z,34
2019-01-17T03:03:10.444Z,34.1
2019-01-17T03:03:59.775Z,34
2019-01-17T03:04:51.148Z,34.1
2019-01-17T03:05:40.410Z,34.1
2019-01-17T03:08:50.275Z,34
2019-01-17T03:09:40.801Z,33.5
2019-01-17T03:10:30.200Z,33.3
2019-01-17T03:11:20.598Z,33.1
2019-01-17T03:12:11.002Z,32.9
2019-01-17T03:13:00.722Z,32.7
2019-01-17T03:13:50.268Z,32.5
2019-01-17T03:14:40.015Z,32.3
2019-01-17T03:15:30.423Z,32.1
2019-01-17T03:16:20.708Z,32
2019-01-17T03:17:10.770Z,31.8
2019-01-17T03:18:00.910Z,31.8
2019-01-17T03:18:50.897Z,31.3
2019-01-17T03:19:41.162Z,30.9
2019-01-17T03:20:31.275Z,30.7
2019-01-17T03:21:20.302Z,30.1
2019-01-17T03:22:11.134Z,29.7
2019-01-17T03:23:01.178Z,30.2
2019-01-17T03:23:50.907Z,30.7
2019-01-17T03:24:47.964Z,31.2
2019-01-17T03:25:31.858Z,31.4
2019-01-17T03:26:20.885Z,31.6
2019-01-17T03:27:10.854Z,31.6
2019-01-17T03:28:00.952Z,31.8
2019-01-17T03:28:51.787Z,31.9
2019-01-17T03:29:41.680Z,32
2019-01-17T03:30:31.520Z,32.1
2019-01-17T03:31:22.129Z,32.3
2019-01-17T03:32:12.347Z,32.4
2019-01-17T03:33:02.819Z,32.6
2019-01-17T03:33:52.156Z,32.6
2019-01-17T03:34:42.274Z,32.8
2019-01-17T03:35:32.226Z,32.8
2019-01-17T03:36:22.276Z,32.9
2019-01-17T03:37:12.090Z,33
2019-01-17T03:38:02.371Z,33
2019-01-17T03:38:52.260Z,33.1
2019-01-17T03:39:42.591Z,33.1
2019-01-17T03:40:32.728Z,33.2
2019-01-17T03:41:22.681Z,33.3
2019-01-17T03:42:12.193Z,33.3
2019-01-17T03:43:02.888Z,33.3
2019-01-17T03:43:52.827Z,33.3
2019-01-17T03:44:42.606Z,32.6
2019-01-17T03:45:32.143Z,31.8
2019-01-17T03:46:23.086Z,30.1
2019-01-17T03:47:13.346Z,28.9
2019-01-17T03:48:03.102Z,27.2
2019-01-17T03:48:53.460Z,25.6
2019-01-17T03:49:43.183Z,25.1
2019-01-17T03:50:33.067Z,25
2019-01-17T03:51:22.831Z,26.1
2019-01-17T03:52:12.608Z,27.4
2019-01-17T03:53:03.761Z,28.4
2019-01-17T03:53:53.541Z,29.4
2019-01-17T03:54:55.317Z,30.3
2019-01-17T03:55:33.600Z,31
2019-01-17T03:56:31.505Z,31.2
2019-01-17T03:57:13.805Z,31.4
2019-01-17T03:58:03.592Z,31.6
2019-01-17T03:58:53.374Z,31.8
2019-01-17T03:59:43.904Z,31.9
2019-01-17T04:00:33.202Z,32
2019-01-17T04:01:24.332Z,32.2
2019-01-17T04:02:13.552Z,32.3
2019-01-17T04:03:03.046Z,32.4
2019-01-17T04:03:53.895Z,32.6
2019-01-17T04:04:44.289Z,32.6
2019-01-17T04:05:34.591Z,32.8
2019-01-17T04:06:23.758Z,32.8
2019-01-17T04:07:14.269Z,32.9
2019-01-17T04:08:04.193Z,33
2019-01-17T04:08:54.579Z,33.1
2019-01-17T04:09:44.276Z,33.1
2019-01-17T04:10:34.747Z,33.1
2019-01-17T04:11:24.416Z,33.2
2019-01-17T04:12:14.452Z,33.3
2019-01-17T04:13:05.102Z,33.3
2019-01-17T04:13:54.271Z,33.3
2019-01-17T04:14:44.571Z,33.4
2019-01-17T04:15:34.382Z,33.4
2019-01-17T04:16:24.531Z,33.4
2019-01-17T04:17:14.589Z,33.4
2019-01-17T04:18:04.851Z,33.5
2019-01-17T04:18:55.212Z,33.5
2019-01-17T04:19:45.086Z,33.5
2019-01-17T04:20:35.536Z,33.5
2019-01-17T04:21:24.544Z,33.6
2019-01-17T04:22:15.491Z,33.6
2019-01-17T04:23:05.468Z,33.6
2019-01-17T04:23:55.853Z,33.6
2019-01-17T04:24:45.364Z,33.6
2019-01-17T04:25:36.166Z,33.6
2019-01-17T04:26:25.689Z,33.7
2019-01-17T04:27:14.880Z,33.7
2019-01-17T04:28:05.227Z,33.7
2019-01-17T04:28:55.072Z,33.7
2019-01-17T04:29:45.670Z,33.7
2019-01-17T04:30:36.075Z,33.8
2019-01-17T04:31:26.286Z,33.8
2019-01-17T04:32:16.013Z,33.8
2019-01-17T04:33:05.828Z,33.8
2019-01-17T04:33:56.164Z,33.8
2019-01-17T04:34:45.902Z,33.8
2019-01-17T04:35:35.494Z,33.8
2019-01-17T04:36:24.722Z,33.8
2019-01-17T04:37:16.653Z,33.8
2019-01-17T04:38:06.267Z,33.8
2019-01-17T04:38:56.209Z,33.8
2019-01-17T04:39:45.460Z,33.8
2019-01-17T04:40:36.653Z,33.8
2019-01-17T04:41:26.684Z,33.8
2019-01-17T04:42:16.475Z,33.8
2019-01-17T04:43:06.518Z,33.8
2019-01-17T04:43:57.130Z,33.9
2019-01-17T04:44:46.109Z,33.9
2019-01-17T04:45:36.785Z,33.9
2019-01-17T04:46:24.583Z,33.9
2019-01-17T04:47:16.009Z,33.9
2019-01-17T04:48:06.408Z,33.9
2019-01-17T04:48:56.274Z,33.9
2019-01-17T04:49:47.014Z,33.9
2019-01-17T04:50:37.049Z,33.9
2019-01-17T04:51:26.326Z,33.9
2019-01-17T04:52:16.667Z,33.9
2019-01-17T04:53:07.007Z,33.6
2019-01-17T04:53:56.996Z,32.7
2019-01-17T04:54:48.371Z,30.9
2019-01-17T04:55:36.327Z,29.8
2019-01-17T04:56:27.451Z,28.4
2019-01-17T04:57:17.759Z,26.6
2019-01-17T04:58:06.956Z,25.4
2019-01-17T04:58:56.529Z,25.4
2019-01-17T04:59:46.638Z,25.9
2019-01-17T05:00:36.953Z,27.2
2019-01-17T05:01:27.759Z,28.3
2019-01-17T05:02:17.677Z,29.3
2019-01-17T05:03:07.865Z,30.2
2019-01-17T05:03:58.500Z,30.8
2019-01-17T05:04:47.131Z,31.2
2019-01-17T05:05:38.345Z,31.4
2019-01-17T05:06:27.835Z,31.6
2019-01-17T05:07:17.132Z,31.9
2019-01-17T05:08:07.676Z,32.1
2019-01-17T05:08:58.147Z,32.2
2019-01-17T05:09:48.092Z,32.4
2019-01-17T05:10:37.399Z,32.5
2019-01-17T05:11:28.175Z,32.6
2019-01-17T05:12:18.550Z,32.7
2019-01-17T05:13:08.373Z,32.8
2019-01-17T05:13:59.115Z,32.9
2019-01-17T05:14:48.698Z,33
2019-01-17T05:15:39.292Z,33.1
2019-01-17T05:16:28.802Z,33.1
2019-01-17T05:17:18.862Z,33.2
2019-01-17T05:18:08.847Z,33.3
2019-01-17T05:18:58.674Z,33.3
2019-01-17T05:19:47.955Z,33.3
2019-01-17T05:20:38.745Z,33.4
2019-01-17T05:21:28.265Z,33.4
2019-01-17T05:22:19.489Z,33.4
2019-01-17T05:23:10.555Z,33.5
2019-01-17T05:23:59.576Z,33.5
2019-01-17T05:24:48.737Z,33.6
2019-01-17T05:25:39.414Z,33.6
2019-01-17T05:26:29.722Z,33.6
2019-01-17T05:27:18.443Z,33.6
2019-01-17T05:28:10.203Z,33.6
2019-01-17T05:28:59.297Z,33.7
2019-01-17T05:29:49.736Z,33.7
2019-01-17T05:30:40.012Z,33.7
2019-01-17T05:31:29.492Z,33.7
2019-01-17T05:32:19.635Z,33.8
2019-01-17T05:33:10.185Z,33.8
2019-01-17T05:34:00.220Z,33.8
2019-01-17T05:34:50.070Z,33.8
2019-01-17T05:35:40.386Z,33.8
2019-01-17T05:36:30.694Z,33.9
2019-01-17T05:37:20.444Z,33.9
2019-01-17T05:38:10.207Z,33.9
2019-01-17T05:38:58.844Z,33.9
2019-01-17T05:39:50.613Z,33.9
2019-01-17T05:40:41.372Z,33.9
2019-01-17T05:41:30.772Z,33.9
2019-01-17T05:42:21.007Z,33.9
2019-01-17T05:43:11.115Z,34
2019-01-17T05:44:00.928Z,34
2019-01-17T05:44:51.183Z,34
2019-01-17T05:45:40.689Z,34
2019-01-17T05:46:31.016Z,34
2019-01-17T05:47:20.789Z,34
2019-01-17T05:48:10.587Z,34
2019-01-17T05:49:01.168Z,34
2019-01-17T05:49:51.234Z,34
2019-01-17T05:50:39.969Z,33.9
2019-01-17T05:51:30.501Z,33.9
2019-01-17T05:52:21.411Z,34
2019-01-17T05:53:11.826Z,34
2019-01-17T05:54:01.771Z,34
2019-01-17T05:54:50.720Z,34
2019-01-17T05:55:40.894Z,33.5
2019-01-17T05:56:31.416Z,33.2
2019-01-17T05:57:21.241Z,32.9
2019-01-17T05:58:11.444Z,32.8
2019-01-17T05:59:01.253Z,32.6
2019-01-17T05:59:50.928Z,32.3
2019-01-17T06:00:42.053Z,32.2
2019-01-17T06:01:31.596Z,32
2019-01-17T06:02:21.903Z,31.8
2019-01-17T06:03:11.823Z,31.6
2019-01-17T06:04:01.115Z,31.5
2019-01-17T06:06:48.830Z,30.6
2019-01-17T06:07:38.996Z,29.6
2019-01-17T06:08:29.592Z,29.9
2019-01-17T06:09:19.888Z,30.4
2019-01-17T06:10:10.360Z,30.9
2019-01-17T06:11:00.191Z,31.3
2019-01-17T06:11:49.220Z,31.4
2019-01-17T06:12:39.870Z,31.6
2019-01-17T06:13:29.924Z,31.7
2019-01-17T06:14:18.959Z,31.3
2019-01-17T06:15:08.876Z,30.4
2019-01-17T06:16:00.807Z,29.2
2019-01-17T06:16:48.885Z,27.9
2019-01-17T06:17:40.341Z,26.3
2019-01-17T06:18:31.006Z,24.5
2019-01-17T06:19:20.252Z,23.5
2019-01-17T06:20:10.836Z,23.6
2019-01-17T06:21:01.420Z,24.2
2019-01-17T06:21:50.637Z,25.6
2019-01-17T06:22:40.189Z,26.8
2019-01-17T06:23:31.099Z,27.8
2019-01-17T06:24:20.917Z,28.7
2019-01-17T06:25:11.070Z,29.6
2019-01-17T06:26:00.644Z,30.3
2019-01-17T06:26:50.954Z,30.8
2019-01-17T06:27:40.536Z,31
2019-01-17T06:28:31.141Z,31.2
2019-01-17T06:29:20.462Z,31.4
2019-01-17T06:30:10.973Z,31.5
2019-01-17T06:31:00.996Z,31.7
2019-01-17T06:31:50.286Z,31.8
2019-01-17T06:32:41.421Z,32
2019-01-17T06:33:31.365Z,32.1
2019-01-17T06:34:21.287Z,32.3
2019-01-17T06:35:11.917Z,32.4
2019-01-17T06:36:01.657Z,32.5
2019-01-17T06:36:51.696Z,32.6
2019-01-17T06:37:42.496Z,32.7
2019-01-17T06:38:32.176Z,32.8
2019-01-17T06:39:22.819Z,32.8
2019-01-17T06:40:11.841Z,32.9
2019-01-17T06:41:02.620Z,32.9
2019-01-17T06:41:52.000Z,33
2019-01-17T06:42:41.786Z,33.1
2019-01-17T06:43:31.351Z,33.1
2019-01-17T06:44:29.373Z,33.2
2019-01-17T06:45:12.209Z,33.3
2019-01-17T06:46:02.253Z,33.3
2019-01-17T06:46:52.372Z,33.3
2019-01-17T06:47:41.583Z,33.4
2019-01-17T06:48:31.583Z,33.4
2019-01-17T06:49:23.128Z,33.4
2019-01-17T06:50:12.850Z,33.5
2019-01-17T06:51:01.792Z,33.5
2019-01-17T06:51:52.150Z,33.5
2019-01-17T06:52:42.739Z,33.6
2019-01-17T06:53:32.918Z,33.6
2019-01-17T06:54:23.727Z,33.6
2019-01-17T06:55:14.355Z,33.6
2019-01-17T06:56:02.112Z,33.6
2019-01-17T06:56:52.212Z,33.7
2019-01-17T06:57:42.892Z,33.7
2019-01-17T06:58:32.857Z,33.7
2019-01-17T06:59:23.227Z,33.7
2019-01-17T07:00:14.060Z,33.8
2019-01-17T07:01:03.834Z,33.8
2019-01-17T07:01:53.632Z,33.8
2019-01-17T07:02:42.829Z,33.8
2019-01-17T07:03:32.779Z,33.8
2019-01-17T07:04:23.309Z,33.8
2019-01-17T07:06:48.728Z,33.9
2019-01-17T07:07:39.829Z,33.9
2019-01-17T07:08:29.339Z,33.9
2019-01-17T07:09:19.881Z,33.9
2019-01-17T07:10:09.809Z,33.9
2019-01-17T07:10:59.825Z,33.9
2019-01-17T07:11:50.909Z,33.9
2019-01-17T07:12:40.116Z,33.9
2019-01-17T07:13:30.138Z,34
2019-01-17T07:14:20.189Z,34
2019-01-17T07:15:09.961Z,34
2019-01-17T07:16:00.548Z,34
2019-01-17T07:16:49.841Z,34.1
2019-01-17T07:17:40.408Z,34.1
2019-01-17T07:18:32.013Z,34.1
2019-01-17T07:19:20.505Z,34.1
2019-01-17T07:20:11.175Z,34.1
2019-01-17T07:21:00.915Z,34.1
2019-01-17T07:21:50.675Z,34.1
2019-01-17T07:22:41.110Z,34
2019-01-17T07:23:31.119Z,33
2019-01-17T07:24:21.437Z,31.4
2019-01-17T07:25:11.183Z,30.1
2019-01-17T07:26:00.740Z,28.8
2019-01-17T07:26:49.803Z,27
2019-01-17T07:27:41.690Z,25.7
2019-01-17T07:28:31.932Z,25.7
2019-01-17T07:29:21.460Z,26
2019-01-17T07:30:11.316Z,27.4
2019-01-17T07:31:01.597Z,28.6
2019-01-17T07:31:51.478Z,29.6
2019-01-17T07:32:41.480Z,30.4
2019-01-17T07:33:31.800Z,30.9
2019-01-17T07:34:21.337Z,31.4
2019-01-17T07:35:11.055Z,31.6
2019-01-17T07:36:01.612Z,31.9
2019-01-17T07:36:51.959Z,32.1
2019-01-17T07:37:41.997Z,32.4
2019-01-17T07:38:30.672Z,32.5
2019-01-17T07:39:22.149Z,32.7
2019-01-17T07:40:12.272Z,32.8
2019-01-17T07:41:01.932Z,32.9
2019-01-17T07:41:52.276Z,33.1
2019-01-17T07:42:42.341Z,33.2
2019-01-17T07:43:31.932Z,33.3
2019-01-17T07:44:22.749Z,33.3
2019-01-17T07:45:12.767Z,33.4
2019-01-17T07:46:02.856Z,33.5
2019-01-17T07:46:51.861Z,33.6
2019-01-17T07:47:43.042Z,33.6
2019-01-17T07:48:32.994Z,33.7
2019-01-17T07:49:23.049Z,33.8
2019-01-17T07:50:13.374Z,33.8
2019-01-17T07:51:03.251Z,33.8
2019-01-17T07:51:52.411Z,33.9
2019-01-17T07:52:42.261Z,33.9
2019-01-17T07:53:33.106Z,34
2019-01-17T07:54:23.176Z,34.1
2019-01-17T07:55:13.193Z,34.1
2019-01-17T07:56:03.236Z,34.1
2019-01-17T07:56:53.309Z,34.2
2019-01-17T07:57:44.035Z,34.3
2019-01-17T07:58:34.016Z,34.3
2019-01-17T07:59:24.048Z,33.7
2019-01-17T08:00:13.595Z,33.4
2019-01-17T08:01:03.371Z,33.2
2019-01-17T08:01:53.656Z,32.9
2019-01-17T08:02:42.888Z,32.8
2019-01-17T08:03:34.133Z,32.6
2019-01-17T08:04:24.103Z,32.4
2019-01-17T08:05:14.218Z,32.2
2019-01-17T08:06:04.228Z,32
2019-01-17T08:06:59.558Z,31.9
2019-01-17T08:07:44.607Z,31.7
2019-01-17T08:08:34.385Z,31.6
2019-01-17T08:09:24.455Z,31.2
2019-01-17T08:10:14.510Z,30.9
2019-01-17T08:11:04.817Z,29.9
2019-01-17T08:11:53.582Z,30.1
2019-01-17T08:12:44.182Z,30.8
2019-01-17T08:13:34.440Z,31.2
2019-01-17T08:14:24.211Z,31.4
2019-01-17T08:15:14.638Z,31.7
2019-01-17T08:16:05.800Z,31.9
2019-01-17T08:16:53.867Z,32.1
2019-01-17T08:17:44.530Z,32.3
2019-01-17T08:18:34.342Z,32.5
2019-01-17T08:19:24.823Z,32.6
2019-01-17T08:20:15.172Z,32.8
2019-01-17T08:21:04.994Z,32.9
2019-01-17T08:21:55.309Z,33.1
2019-01-17T08:22:44.557Z,33.2
2019-01-17T08:23:41.444Z,33.3
2019-01-17T08:24:25.268Z,33.4
2019-01-17T08:25:14.994Z,33.4
2019-01-17T08:26:05.847Z,33.5
2019-01-17T08:26:55.860Z,33.6
2019-01-17T08:27:46.488Z,33.7
2019-01-17T08:28:35.727Z,33.8
2019-01-17T08:29:25.529Z,33.8
2019-01-17T08:30:16.147Z,33.9
2019-01-17T08:31:04.976Z,33.9
2019-01-17T08:31:55.979Z,34
2019-01-17T08:32:45.775Z,34.1
2019-01-17T08:33:36.386Z,34.1
2019-01-17T08:34:32.746Z,34.2
2019-01-17T08:35:17.759Z,34.3
2019-01-17T08:36:06.292Z,34.3
2019-01-17T08:36:56.304Z,33.9
2019-01-17T08:37:45.536Z,33.6
2019-01-17T08:38:36.154Z,33.4
2019-01-17T08:39:26.743Z,33.2
2019-01-17T08:40:23.156Z,32.9
2019-01-17T08:41:06.363Z,32.8
2019-01-17T08:41:56.378Z,32.6
2019-01-17T08:42:46.993Z,32.4
2019-01-17T08:43:37.060Z,32.2
2019-01-17T08:44:27.124Z,32
2019-01-17T08:45:16.926Z,31.9
2019-01-17T08:46:06.195Z,31.7
2019-01-17T08:46:56.415Z,31.6
2019-01-17T08:47:46.770Z,31.2
2019-01-17T08:48:36.300Z,30.8
2019-01-17T08:49:26.930Z,29.9
2019-01-17T08:50:16.245Z,30.4
2019-01-17T08:51:07.295Z,31.1
2019-01-17T08:51:56.853Z,31.4
2019-01-17T08:52:47.233Z,31.6
2019-01-17T08:53:37.215Z,31.8
2019-01-17T08:54:26.450Z,32.1
2019-01-17T08:55:16.837Z,32.3
2019-01-17T08:56:11.596Z,32.4
2019-01-17T08:56:57.149Z,31.4
2019-01-17T08:57:47.437Z,30.5
2019-01-17T08:58:36.892Z,28.9
2019-01-17T08:59:27.522Z,27.1
2019-01-17T09:00:17.695Z,25.6
2019-01-17T09:01:07.165Z,25.4
2019-01-17T09:01:57.692Z,25.6
2019-01-17T09:02:47.815Z,27.1
2019-01-17T09:03:37.644Z,28.3
2019-01-17T09:04:28.482Z,29.4
2019-01-17T09:05:18.240Z,30.2
2019-01-17T09:06:07.744Z,30.8
2019-01-17T09:06:58.569Z,31.3
2019-01-17T09:07:48.074Z,31.7
2019-01-17T09:08:37.887Z,31.9
2019-01-17T09:09:27.937Z,32.2
2019-01-17T09:10:18.577Z,32.4
2019-01-17T09:11:08.081Z,32.6
2019-01-17T09:11:58.452Z,32.9
2019-01-17T09:12:48.205Z,33
2019-01-17T09:13:38.547Z,33.2
2019-01-17T09:14:28.338Z,33.3
2019-01-17T09:15:18.164Z,33.4
2019-01-17T09:16:07.916Z,33.5
2019-01-17T09:16:58.156Z,33.6
2019-01-17T09:17:49.056Z,33.7
2019-01-17T09:18:39.094Z,33.8
2019-01-17T09:19:30.591Z,33.9
2019-01-17T09:20:19.256Z,34
2019-01-17T09:21:08.213Z,34.1
2019-01-17T09:21:59.056Z,34.1
2019-01-17T09:22:49.116Z,34.2
2019-01-17T09:23:39.468Z,34.3
2019-01-17T09:24:29.773Z,34.3
2019-01-17T09:25:19.823Z,34.3
2019-01-17T09:26:15.881Z,34.2
2019-01-17T09:26:59.666Z,33.8
2019-01-17T09:27:49.773Z,33.5
2019-01-17T09:28:39.495Z,33.3
2019-01-17T09:29:29.547Z,33.1
2019-01-17T09:30:19.145Z,32.9
2019-01-17T09:31:10.384Z,32.7
2019-01-17T09:32:00.322Z,32.4
2019-01-17T09:32:50.199Z,32.3
2019-01-17T09:33:40.145Z,32.1
2019-01-17T09:34:30.245Z,31.9
2019-01-17T09:35:20.282Z,31.8
2019-01-17T09:36:09.554Z,31.5
2019-01-17T09:36:59.927Z,31.1
2019-01-17T09:37:50.240Z,30.7
2019-01-17T09:38:40.000Z,30.1
2019-01-17T09:39:30.807Z,30.8
2019-01-17T09:40:20.680Z,31.3
2019-01-17T09:41:10.727Z,31.6
2019-01-17T09:42:00.427Z,31.8
2019-01-17T09:42:50.810Z,32
2019-01-17T09:43:40.794Z,32.3
2019-01-17T09:44:30.419Z,32.4
2019-01-17T09:45:21.241Z,32.6
2019-01-17T09:46:09.999Z,32.8
2019-01-17T09:47:00.312Z,33
2019-01-17T09:47:50.687Z,33.1
2019-01-17T09:48:40.697Z,33.3
2019-01-17T09:49:30.385Z,33.4
2019-01-17T09:50:21.035Z,33.5
2019-01-17T09:51:11.076Z,33.6
2019-01-17T09:52:01.357Z,33.7
2019-01-17T09:52:51.775Z,33.8
2019-01-17T09:53:41.849Z,33.9
2019-01-17T09:54:31.547Z,34
2019-01-17T09:55:21.920Z,34.1
2019-01-17T09:56:19.327Z,34.1
2019-01-17T09:57:01.423Z,34.2
2019-01-17T09:57:51.489Z,34.3
2019-01-17T09:58:41.557Z,34.3
2019-01-17T09:59:31.929Z,34.3
2019-01-17T10:00:22.231Z,34.2
2019-01-17T10:01:11.723Z,33.8
2019-01-17T10:02:02.141Z,33.4
2019-01-17T10:02:52.246Z,33.2
2019-01-17T10:03:41.676Z,32.9
2019-01-17T10:04:36.526Z,32.7
2019-01-17T10:05:22.048Z,32.4
2019-01-17T10:07:49.226Z,31.9
2019-01-17T10:08:39.238Z,31.6
2019-01-17T10:09:28.267Z,31.4
2019-01-17T10:10:18.878Z,31.3
2019-01-17T10:11:09.308Z,31
2019-01-17T10:11:59.951Z,30.6
2019-01-17T10:12:49.998Z,29.9
2019-01-17T10:13:41.857Z,30.8
2019-01-17T10:14:30.048Z,31.3
2019-01-17T10:15:20.882Z,31.5
2019-01-17T10:16:10.992Z,31.8
2019-01-17T10:17:00.780Z,32.1
2019-01-17T10:17:50.882Z,32.3
2019-01-17T10:18:40.319Z,32.5
2019-01-17T10:19:31.220Z,32.8
2019-01-17T10:20:20.971Z,32.9
2019-01-17T10:21:10.432Z,33.1
2019-01-17T10:22:00.562Z,33.3
2019-01-17T10:22:50.137Z,33.4
2019-01-17T10:23:41.025Z,33.6
2019-01-17T10:24:30.040Z,33.6
2019-01-17T10:25:20.834Z,33.8
2019-01-17T10:26:11.115Z,33.9
2019-01-17T10:27:01.207Z,34
2019-01-17T10:27:50.860Z,34.1
2019-01-17T10:28:41.460Z,34.1
2019-01-17T10:29:31.549Z,33.1
2019-01-17T10:30:21.094Z,31.6
2019-01-17T10:31:11.372Z,29.4
2019-01-17T10:32:02.526Z,28.2
2019-01-17T10:32:50.872Z,28.1
2019-01-17T10:33:41.664Z,28.5
2019-01-17T10:34:31.129Z,29.8
2019-01-17T10:35:21.454Z,30.7
2019-01-17T10:36:11.228Z,31.3
2019-01-17T10:37:01.294Z,31.8
2019-01-17T10:37:51.321Z,32.3
2019-01-17T10:38:41.207Z,32.6
2019-01-17T10:39:31.735Z,32.9
2019-01-17T10:40:21.514Z,33.1
2019-01-17T10:41:11.886Z,33.4
2019-01-17T10:42:01.901Z,33.6
2019-01-17T10:42:52.201Z,33.8
2019-01-17T10:43:42.774Z,33.9
2019-01-17T10:44:32.713Z,34
2019-01-17T10:45:22.887Z,34.1
2019-01-17T10:46:12.940Z,34.3
2019-01-17T10:47:02.433Z,34.3
2019-01-17T10:47:52.208Z,34.4
2019-01-17T10:48:43.158Z,33.9
2019-01-17T10:49:32.605Z,33.8
2019-01-17T10:50:23.238Z,33.4
2019-01-17T10:51:13.278Z,33.1
2019-01-17T10:52:03.018Z,32.9
2019-01-17T10:52:53.406Z,32.7
2019-01-17T10:53:42.290Z,32.4
2019-01-17T10:54:33.228Z,32.3
2019-01-17T10:55:22.648Z,32.1
2019-01-17T10:56:12.575Z,31.9
2019-01-17T10:57:03.230Z,31.7
2019-01-17T10:57:52.478Z,31.7
2019-01-17T10:58:42.260Z,31.3
2019-01-17T10:59:33.070Z,31
2019-01-17T11:00:23.665Z,30.1
2019-01-17T11:01:13.269Z,30.6
2019-01-17T11:02:03.265Z,31.3
2019-01-17T11:02:53.045Z,31.6
2019-01-17T11:03:43.918Z,31.8
2019-01-17T11:04:33.140Z,32.1
2019-01-17T11:05:23.524Z,32.4
2019-01-17T11:06:13.737Z,32.6
2019-01-17T11:07:03.862Z,32.9
2019-01-17T11:07:54.142Z,33.1
2019-01-17T11:08:43.412Z,33.3
2019-01-17T11:09:33.497Z,33.5
2019-01-17T11:10:23.784Z,33.6
2019-01-17T11:11:13.857Z,33.8
2019-01-17T11:12:04.212Z,33.9
2019-01-17T11:12:54.756Z,34.1
2019-01-17T11:13:46.285Z,34.1
2019-01-17T11:14:34.935Z,34.3
2019-01-17T11:15:24.699Z,34.4
2019-01-17T11:16:15.036Z,34.4
2019-01-17T11:17:04.296Z,33.9